createdAt,value
2023-01-15T00:01:02.507Z,8.60
2023-01-15T00:03:30.165Z,8.70
2023-01-15T00:05:57.151Z,8.70
2023-01-15T00:08:23.763Z,8.70
2023-01-15T00:10:50.315Z,8.80
2023-01-15T00:13:16.845Z,8.80
2023-01-15T00:15:43.686Z,8.80
2023-01-15T00:18:10.649Z,8.90
2023-01-15T00:20:37.205Z,8.80
2023-01-15T00:23:03.788Z,8.90
2023-01-15T00:25:49.224Z,9.00
2023-01-15T00:28:15.807Z,8.90
2023-01-15T00:30:42.596Z,8.90
2023-01-15T00:33:09.851Z,8.90
2023-01-15T00:35:36.413Z,8.80
2023-01-15T00:38:03.093Z,8.80
2023-01-15T00:40:29.644Z,9.00
2023-01-15T00:42:56.206Z,8.90
2023-01-15T00:45:23.326Z,8.90
2023-01-15T00:47:50.682Z,8.90
2023-01-15T00:50:17.412Z,8.90
2023-01-15T00:52:44.038Z,9.00
2023-01-15T00:55:10.655Z,9.00
2023-01-15T00:57:37.364Z,9.00
2023-01-15T01:00:04.742Z,9.00
2023-01-15T01:02:31.431Z,9.00
2023-01-15T01:04:58.125Z,8.90
2023-01-15T01:07:24.747Z,8.90
2023-01-15T01:09:51.359Z,8.90
2023-01-15T01:12:17.953Z,8.90
2023-01-15T01:14:44.637Z,8.90
2023-01-15T01:17:12.483Z,8.90
2023-01-15T01:19:39.047Z,9.00
2023-01-15T01:22:05.750Z,9.00
2023-01-15T01:24:32.338Z,8.90
2023-01-15T01:26:58.934Z,9.00
2023-01-15T01:29:25.625Z,9.00
2023-01-15T01:31:52.422Z,9.00
2023-01-15T01:34:19.131Z,9.10
2023-01-15T01:36:45.795Z,9.20
2023-01-15T01:39:15.199Z,9.20
2023-01-15T01:41:42.151Z,9.20
2023-01-15T01:44:32.097Z,9.20
2023-01-15T01:47:04.613Z,9.20
2023-01-15T01:49:31.549Z,9.20
2023-01-15T01:52:07.494Z,9.20
2023-01-15T01:54:35.807Z,9.20
2023-01-15T01:57:03.626Z,9.20
2023-01-15T01:59:30.466Z,9.20
2023-01-15T02:01:57.261Z,8.90
2023-01-15T02:04:26.468Z,9.00
2023-01-15T02:06:54.020Z,9.10
2023-01-15T02:09:20.744Z,9.10
2023-01-15T02:11:49.175Z,9.10
2023-01-15T02:14:22.852Z,9.20
2023-01-15T02:17:14.422Z,9.20
2023-01-15T02:20:10.344Z,9.10
2023-01-15T02:22:53.539Z,9.00
2023-01-15T02:25:45.883Z,9.10
2023-01-15T02:28:24.469Z,9.10
2023-01-15T02:30:59.497Z,9.10
2023-01-15T02:33:38.516Z,9.00
2023-01-15T02:36:09.000Z,9.00
2023-01-15T02:38:41.570Z,9.00
2023-01-15T02:41:16.513Z,9.00
2023-01-15T02:43:46.804Z,9.00
2023-01-15T02:46:15.090Z,8.90
2023-01-15T02:48:42.725Z,9.00
2023-01-15T02:51:14.290Z,8.90
2023-01-15T02:53:44.137Z,8.80
2023-01-15T02:56:15.351Z,8.90
2023-01-15T02:58:43.895Z,8.90
2023-01-15T03:01:22.274Z,8.90
2023-01-15T03:04:11.102Z,8.90
2023-01-15T03:06:46.331Z,8.90
2023-01-15T03:09:14.481Z,8.90
2023-01-15T03:11:48.561Z,8.90
2023-01-15T03:14:21.841Z,8.90
2023-01-15T03:16:56.308Z,8.90
2023-01-15T03:19:31.561Z,8.90
2023-01-15T03:22:01.772Z,8.90
2023-01-15T03:24:57.775Z,8.90
2023-01-15T03:27:24.687Z,8.90
2023-01-15T03:29:59.104Z,8.90
2023-01-15T03:32:26.336Z,8.90
2023-01-15T03:34:55.236Z,8.80
2023-01-15T03:37:24.285Z,8.80
2023-01-15T03:39:52.382Z,8.60
2023-01-15T03:42:42.300Z,8.80
2023-01-15T03:45:20.513Z,8.80
2023-01-15T03:48:03.031Z,8.80
2023-01-15T03:50:52.794Z,8.90
2023-01-15T03:53:43.872Z,8.90
2023-01-15T03:56:27.670Z,8.90
2023-01-15T03:59:13.295Z,8.90
2023-01-15T04:01:42.529Z,8.90
2023-01-15T04:04:09.923Z,8.90
2023-01-15T04:06:39.707Z,8.90
2023-01-15T04:09:08.856Z,8.90
2023-01-15T04:11:35.894Z,8.70
2023-01-15T04:14:02.534Z,8.50
2023-01-15T04:16:31.965Z,8.20
2023-01-15T04:18:59.807Z,8.10
2023-01-15T04:21:26.706Z,7.90
2023-01-15T04:23:53.262Z,7.90
2023-01-15T04:26:19.808Z,7.90
2023-01-15T04:28:46.361Z,7.90
2023-01-15T04:31:13.187Z,7.80
2023-01-15T04:33:40.046Z,7.60
2023-01-15T04:36:07.409Z,7.30
2023-01-15T04:38:33.963Z,7.20
2023-01-15T04:41:23.293Z,6.90
2023-01-15T04:44:08.344Z,6.80
2023-01-15T04:46:36.280Z,6.60
2023-01-15T04:49:04.523Z,6.50
2023-01-15T04:51:31.111Z,6.40
2023-01-15T04:53:57.917Z,6.30
2023-01-15T04:56:24.637Z,6.20
2023-01-15T04:58:51.218Z,6.10
2023-01-15T05:01:19.258Z,6.10
2023-01-15T05:03:46.052Z,6.10
2023-01-15T05:06:14.326Z,6.20
2023-01-15T05:08:40.982Z,6.00
2023-01-15T05:11:08.093Z,5.60
2023-01-15T05:13:34.723Z,6.00
2023-01-15T05:16:12.934Z,6.00
2023-01-15T05:18:39.906Z,5.90
2023-01-15T05:21:06.788Z,5.90
2023-01-15T05:23:33.376Z,5.70
2023-01-15T05:26:03.270Z,5.90
2023-01-15T05:28:29.832Z,5.90
2023-01-15T05:30:56.403Z,5.90
2023-01-15T05:33:22.957Z,5.90
2023-01-15T05:35:49.504Z,5.90
2023-01-15T05:38:16.042Z,6.00
2023-01-15T05:40:42.647Z,5.90
2023-01-15T05:43:09.193Z,5.90
2023-01-15T05:45:36.501Z,5.90
2023-01-15T05:48:03.143Z,5.80
2023-01-15T05:50:29.717Z,5.90
2023-01-15T05:52:56.285Z,5.90
2023-01-15T05:55:22.835Z,5.90
2023-01-15T05:57:49.422Z,5.80
2023-01-15T06:00:16.547Z,5.90
2023-01-15T06:02:43.180Z,5.90
2023-01-15T06:05:09.893Z,5.90
2023-01-15T06:07:36.425Z,5.90
2023-01-15T06:10:03.169Z,5.90
2023-01-15T06:12:29.761Z,5.80
2023-01-15T06:14:56.298Z,6.10
2023-01-15T06:17:22.883Z,5.80
2023-01-15T06:19:49.422Z,5.80
2023-01-15T06:22:15.976Z,5.90
2023-01-15T06:24:42.556Z,5.90
2023-01-15T06:27:09.160Z,5.80
2023-01-15T06:29:35.708Z,5.80
2023-01-15T06:32:02.275Z,5.90
2023-01-15T06:34:28.907Z,5.90
2023-01-15T06:36:55.486Z,5.80
2023-01-15T06:39:22.103Z,5.90
2023-01-15T06:42:07.318Z,5.90
2023-01-15T06:44:52.723Z,5.90
2023-01-15T06:47:20.738Z,5.90
2023-01-15T06:49:48.915Z,6.10
2023-01-15T06:52:15.537Z,6.10
2023-01-15T06:54:42.064Z,6.10
2023-01-15T06:57:08.673Z,6.10
2023-01-15T06:59:35.322Z,6.10
2023-01-15T07:02:01.981Z,6.20
2023-01-15T07:04:28.644Z,6.20
2023-01-15T07:06:55.232Z,6.30
2023-01-15T07:09:21.898Z,6.20
2023-01-15T07:11:51.183Z,6.20
2023-01-15T07:14:18.878Z,6.20
2023-01-15T07:16:45.711Z,6.10
2023-01-15T07:19:13.190Z,6.10
2023-01-15T07:21:39.855Z,6.10
2023-01-15T07:24:07.412Z,6.10
2023-01-15T07:26:34.767Z,6.40
2023-01-15T07:29:01.410Z,6.20
2023-01-15T07:31:28.096Z,6.20
2023-01-15T07:33:57.023Z,6.20
2023-01-15T07:36:24.646Z,6.30
2023-01-15T07:38:51.304Z,6.20
2023-01-15T07:41:36.361Z,6.10
2023-01-15T07:44:21.670Z,6.20
2023-01-15T07:47:06.929Z,5.80
2023-01-15T07:49:45.734Z,6.00
2023-01-15T07:52:17.831Z,6.10
2023-01-15T07:54:45.551Z,6.10
2023-01-15T07:57:14.648Z,5.90
2023-01-15T07:59:41.364Z,6.10
2023-01-15T08:02:08.023Z,6.00
2023-01-15T08:04:34.776Z,6.10
2023-01-15T08:07:02.730Z,6.10
2023-01-15T08:09:29.945Z,6.10
2023-01-15T08:12:17.899Z,6.10
2023-01-15T08:15:03.493Z,6.00
2023-01-15T08:17:30.484Z,6.10
2023-01-15T08:19:57.590Z,6.20
2023-01-15T08:22:24.189Z,6.40
2023-01-15T08:24:51.012Z,6.00
2023-01-15T08:27:17.610Z,5.90
2023-01-15T08:29:44.201Z,6.10
2023-01-15T08:32:10.903Z,6.20
2023-01-15T08:34:37.637Z,6.20
2023-01-15T08:37:04.220Z,6.20
2023-01-15T08:39:30.823Z,6.10
2023-01-15T08:41:58.042Z,6.20
2023-01-15T08:44:24.923Z,6.20
2023-01-15T08:46:52.908Z,6.30
2023-01-15T08:49:21.106Z,6.30
2023-01-15T08:51:51.576Z,6.30
2023-01-15T08:54:19.948Z,6.00
2023-01-15T08:56:47.604Z,6.30
2023-01-15T08:59:14.334Z,6.30
2023-01-15T09:01:41.606Z,6.20
2023-01-15T09:04:10.622Z,6.30
2023-01-15T09:06:37.198Z,6.30
2023-01-15T09:09:03.868Z,6.00
2023-01-15T09:11:30.487Z,6.40
2023-01-15T09:13:57.052Z,6.40
2023-01-15T09:16:23.742Z,6.40
2023-01-15T09:18:50.344Z,6.40
2023-01-15T09:21:17.025Z,6.50
2023-01-15T09:23:43.603Z,6.40
2023-01-15T09:26:25.457Z,6.50
2023-01-15T09:28:52.007Z,6.60
2023-01-15T09:31:18.623Z,6.50
2023-01-15T09:33:45.158Z,6.50
2023-01-15T09:36:28.328Z,6.60
2023-01-15T09:38:55.634Z,6.60
2023-01-15T09:41:42.527Z,6.50
2023-01-15T09:44:27.118Z,6.50
2023-01-15T09:47:04.944Z,6.60
2023-01-15T09:50:02.905Z,6.70
2023-01-15T09:52:49.732Z,6.70
2023-01-15T09:55:29.482Z,6.60
2023-01-15T09:58:00.397Z,6.70
2023-01-15T10:00:34.722Z,6.70
2023-01-15T10:03:10.437Z,6.70
2023-01-15T10:05:52.708Z,7.00
2023-01-15T10:08:27.671Z,6.80
2023-01-15T10:11:06.362Z,6.80
2023-01-15T10:13:47.558Z,6.80
2023-01-15T10:16:22.406Z,6.80
2023-01-15T10:18:49.418Z,6.80
2023-01-15T10:21:33.009Z,6.80
2023-01-15T10:24:18.621Z,6.80
2023-01-15T10:26:57.843Z,6.80
2023-01-15T10:29:44.001Z,6.90
2023-01-15T10:32:56.927Z,7.00
2023-01-15T10:35:34.847Z,7.00
2023-01-15T10:38:31.084Z,7.00
2023-01-15T10:41:12.833Z,7.10
2023-01-15T10:43:49.763Z,7.10
2023-01-15T10:46:33.680Z,7.20
2023-01-15T10:49:13.441Z,7.20
2023-01-15T10:51:50.593Z,7.10
2023-01-15T10:54:21.965Z,7.10
2023-01-15T10:57:11.406Z,7.20
2023-01-15T10:59:59.900Z,7.30
2023-01-15T11:02:49.463Z,7.30
2023-01-15T11:05:19.588Z,7.30
2023-01-15T11:08:15.279Z,7.20
2023-01-15T11:10:35.730Z,7.30
2023-01-15T11:13:42.803Z,7.40
2023-01-15T11:16:35.856Z,7.50
2023-01-15T11:19:24.216Z,7.50
2023-01-15T11:21:52.556Z,7.40
2023-01-15T11:24:19.401Z,7.40
2023-01-15T11:26:50.538Z,7.50
2023-01-15T11:29:33.585Z,7.50
2023-01-15T11:32:00.182Z,7.30
2023-01-15T11:34:26.784Z,7.20
2023-01-15T11:37:06.717Z,7.40
2023-01-15T11:39:33.531Z,7.40
2023-01-15T11:42:31.731Z,7.40
2023-01-15T11:45:17.019Z,7.30
2023-01-15T11:48:12.684Z,7.30
2023-01-15T11:51:09.317Z,7.40
2023-01-15T11:53:43.466Z,7.40
2023-01-15T11:56:14.993Z,7.30
2023-01-15T11:58:47.113Z,7.30
2023-01-15T12:01:21.150Z,7.30
2023-01-15T12:03:47.993Z,7.40
2023-01-15T12:06:15.610Z,7.10
2023-01-15T12:08:51.829Z,7.30
2023-01-15T12:11:52.668Z,7.40
2023-01-15T12:14:49.803Z,7.40
2023-01-15T12:17:54.973Z,7.30
2023-01-15T12:20:41.231Z,7.30
2023-01-15T12:23:32.428Z,7.40
2023-01-15T12:26:17.562Z,7.30
2023-01-15T12:29:02.460Z,7.30
2023-01-15T12:31:52.361Z,7.40
2023-01-15T12:34:24.324Z,7.40
2023-01-15T12:37:02.909Z,7.40
2023-01-15T12:39:36.624Z,7.40
2023-01-15T12:42:27.614Z,7.40
2023-01-15T12:45:03.986Z,7.40
2023-01-15T12:47:48.529Z,7.10
2023-01-15T12:50:38.102Z,7.40
2023-01-15T12:53:35.979Z,7.30
2023-01-15T12:56:14.273Z,7.20
2023-01-15T12:58:57.143Z,7.30
2023-01-15T13:01:52.284Z,7.30
2023-01-15T13:04:28.048Z,7.30
2023-01-15T13:07:02.976Z,7.30
2023-01-15T13:09:49.760Z,7.30
2023-01-15T13:12:17.080Z,7.30
2023-01-15T13:14:46.465Z,7.30
2023-01-15T13:17:24.084Z,7.40
2023-01-15T13:20:16.867Z,7.50
2023-01-15T13:22:55.088Z,7.50
2023-01-15T13:25:31.745Z,7.50
2023-01-15T13:28:30.531Z,7.50
2023-01-15T13:31:20.548Z,7.50
2023-01-15T13:33:52.278Z,7.40
2023-01-15T13:36:27.227Z,7.20
2023-01-15T13:38:57.256Z,7.20
2023-01-15T13:41:49.646Z,7.10
2023-01-15T13:44:19.358Z,7.10
2023-01-15T13:46:48.091Z,7.10
2023-01-15T13:49:22.664Z,7.00
2023-01-15T13:51:50.041Z,7.60
2023-01-15T13:54:22.277Z,6.90
2023-01-15T13:56:48.913Z,6.90
2023-01-15T13:59:40.498Z,6.90
2023-01-15T14:02:24.435Z,6.90
2023-01-15T14:04:51.411Z,7.00
2023-01-15T14:07:20.549Z,7.10
2023-01-15T14:09:47.101Z,7.10
2023-01-15T14:12:42.038Z,7.10
2023-01-15T14:15:25.318Z,7.10
2023-01-15T14:18:01.263Z,7.00
2023-01-15T14:20:58.405Z,7.00
2023-01-15T14:23:39.129Z,6.90
2023-01-15T14:26:29.263Z,7.00
2023-01-15T14:29:04.249Z,7.00
2023-01-15T14:31:50.829Z,6.90
2023-01-15T14:34:22.593Z,7.00
2023-01-15T14:37:19.065Z,7.10
2023-01-15T14:39:52.042Z,7.00
2023-01-15T14:42:40.407Z,7.00
2023-01-15T14:45:13.209Z,7.00
2023-01-15T14:47:50.563Z,7.00
2023-01-15T14:50:34.599Z,6.90
2023-01-15T14:53:16.072Z,6.90
2023-01-15T14:56:07.128Z,6.90
2023-01-15T14:58:40.411Z,6.90
2023-01-15T15:01:32.709Z,7.00
2023-01-15T15:04:07.723Z,7.00
2023-01-15T15:06:44.606Z,6.90
2023-01-15T15:09:14.016Z,6.90
2023-01-15T15:12:08.052Z,6.90
2023-01-15T15:14:38.540Z,6.80
2023-01-15T15:17:13.906Z,6.70
2023-01-15T15:19:49.075Z,6.70
2023-01-15T15:22:19.420Z,6.60
2023-01-15T15:24:50.362Z,6.60
2023-01-15T15:27:19.535Z,6.60
2023-01-15T15:29:46.462Z,6.50
2023-01-15T15:32:21.771Z,6.50
2023-01-15T15:34:51.395Z,6.40
2023-01-15T15:37:20.928Z,6.40
2023-01-15T15:40:04.992Z,6.40
2023-01-15T15:42:55.959Z,6.30
2023-01-15T15:45:49.065Z,6.30
2023-01-15T15:48:45.672Z,6.20
2023-01-15T15:51:34.491Z,6.10
2023-01-15T15:54:27.600Z,6.20
2023-01-15T15:57:12.406Z,6.20
2023-01-15T15:59:45.920Z,6.10
2023-01-15T16:02:31.233Z,6.10
2023-01-15T16:05:02.750Z,6.10
2023-01-15T16:07:33.770Z,6.00
2023-01-15T16:10:18.879Z,6.00
2023-01-15T16:12:52.301Z,6.00
2023-01-15T16:15:40.897Z,6.00
2023-01-15T16:18:19.810Z,5.90
2023-01-15T16:20:46.621Z,5.30
2023-01-15T16:23:22.204Z,5.80
2023-01-15T16:26:05.333Z,5.70
2023-01-15T16:28:42.804Z,5.80
2023-01-15T16:31:11.264Z,5.80
2023-01-15T16:33:38.916Z,5.70
2023-01-15T16:36:07.775Z,5.60
2023-01-15T16:38:42.751Z,5.60
2023-01-15T16:41:32.246Z,5.70
2023-01-15T16:44:02.403Z,5.60
2023-01-15T16:46:31.767Z,5.60
2023-01-15T16:49:23.362Z,5.60
2023-01-15T16:51:56.948Z,5.60
2023-01-15T16:54:29.527Z,5.60
2023-01-15T16:57:03.098Z,5.60
2023-01-15T16:59:30.244Z,5.60
2023-01-15T17:02:05.369Z,5.50
2023-01-15T17:04:41.438Z,5.50
2023-01-15T17:07:21.055Z,5.50
2023-01-15T17:09:50.443Z,5.60
2023-01-15T17:12:39.319Z,5.60
2023-01-15T17:15:18.274Z,5.60
2023-01-15T17:17:46.993Z,5.60
2023-01-15T17:20:14.559Z,5.60
2023-01-15T17:22:43.010Z,5.50
2023-01-15T17:25:26.767Z,5.50
2023-01-15T17:27:55.819Z,5.50
2023-01-15T17:30:30.610Z,5.60
2023-01-15T17:32:58.487Z,5.50
2023-01-15T17:35:28.752Z,5.50
2023-01-15T17:37:55.400Z,5.60
2023-01-15T17:40:22.278Z,5.60
2023-01-15T17:42:49.024Z,5.60
2023-01-15T17:45:24.050Z,5.60
2023-01-15T17:47:50.632Z,5.60
2023-01-15T17:50:18.174Z,5.50
2023-01-15T17:52:45.151Z,5.60
2023-01-15T17:55:35.886Z,5.60
2023-01-15T17:58:21.697Z,5.60
2023-01-15T18:01:07.883Z,5.50
2023-01-15T18:03:54.767Z,5.60
2023-01-15T18:06:21.876Z,5.60
2023-01-15T18:08:53.721Z,5.60
2023-01-15T18:11:21.265Z,5.60
2023-01-15T18:13:47.908Z,5.60
2023-01-15T18:16:16.047Z,5.50
2023-01-15T18:18:42.943Z,5.50
2023-01-15T18:21:09.535Z,5.90
2023-01-15T18:23:39.409Z,5.50
2023-01-15T18:26:07.198Z,5.60
2023-01-15T18:28:35.551Z,5.60
2023-01-15T18:31:03.133Z,5.60
2023-01-15T18:33:30.423Z,5.60
2023-01-15T18:36:04.387Z,5.60
2023-01-15T18:38:32.174Z,5.60
2023-01-15T18:41:09.290Z,5.60
2023-01-15T18:43:54.498Z,5.60
2023-01-15T18:46:39.875Z,5.60
2023-01-15T18:49:06.566Z,5.60
2023-01-15T18:51:33.296Z,5.60
2023-01-15T18:54:00.007Z,5.60
2023-01-15T18:56:47.954Z,5.70
2023-01-15T18:59:15.341Z,5.70
2023-01-15T19:01:42.596Z,5.70
2023-01-15T19:04:10.982Z,5.70
2023-01-15T19:06:40.218Z,5.80
2023-01-15T19:09:08.344Z,5.80
2023-01-15T19:11:35.446Z,5.80
2023-01-15T19:14:20.941Z,5.70
2023-01-15T19:17:06.491Z,5.80
2023-01-15T19:19:33.219Z,5.80
2023-01-15T19:22:29.075Z,5.80
2023-01-15T19:24:55.771Z,5.80
2023-01-15T19:27:22.578Z,5.80
2023-01-15T19:29:49.198Z,5.70
2023-01-15T19:32:15.751Z,5.70
2023-01-15T19:34:42.328Z,5.70
2023-01-15T19:37:08.877Z,5.70
2023-01-15T19:39:35.470Z,5.70
2023-01-15T19:42:21.170Z,5.70
2023-01-15T19:45:06.511Z,5.70
2023-01-15T19:47:58.535Z,5.60
2023-01-15T19:50:35.412Z,5.60
2023-01-15T19:53:02.040Z,5.70
2023-01-15T19:55:31.101Z,5.70
2023-01-15T19:58:03.795Z,5.80
2023-01-15T20:00:32.049Z,5.70
2023-01-15T20:02:59.055Z,5.70
2023-01-15T20:05:27.909Z,5.70
2023-01-15T20:07:54.707Z,5.70
2023-01-15T20:10:23.498Z,5.80
2023-01-15T20:13:09.092Z,5.80
2023-01-15T20:15:38.858Z,5.60
2023-01-15T20:18:06.147Z,5.70
2023-01-15T20:20:32.869Z,5.70
2023-01-15T20:22:59.495Z,5.70
2023-01-15T20:25:27.447Z,5.70
2023-01-15T20:27:55.422Z,5.40
2023-01-15T20:30:23.711Z,5.70
2023-01-15T20:32:53.068Z,5.70
2023-01-15T20:35:22.806Z,5.50
2023-01-15T20:37:50.836Z,5.60
2023-01-15T20:40:21.911Z,5.60
2023-01-15T20:43:07.119Z,5.50
2023-01-15T20:45:34.486Z,5.60
2023-01-15T20:48:14.291Z,5.60
2023-01-15T20:51:00.469Z,5.50
2023-01-15T20:53:35.523Z,5.60
2023-01-15T20:56:12.732Z,5.60
2023-01-15T20:58:39.478Z,5.60
2023-01-15T21:01:08.974Z,5.50
2023-01-15T21:03:36.888Z,5.50
2023-01-15T21:06:05.076Z,5.50
2023-01-15T21:08:33.522Z,5.50
2023-01-15T21:11:00.617Z,5.50
2023-01-15T21:13:27.193Z,5.50
2023-01-15T21:15:59.295Z,5.50
2023-01-15T21:18:30.640Z,5.50
2023-01-15T21:20:57.397Z,5.50
2023-01-15T21:23:24.545Z,5.60
2023-01-15T21:25:51.346Z,5.60
2023-01-15T21:28:17.926Z,5.60
2023-01-15T21:30:44.776Z,5.20
2023-01-15T21:33:11.496Z,5.60
2023-01-15T21:35:41.452Z,5.50
2023-01-15T21:38:08.652Z,5.50
2023-01-15T21:40:37.383Z,5.10
2023-01-15T21:43:23.710Z,5.40
2023-01-15T21:45:51.274Z,5.20
2023-01-15T21:48:18.594Z,5.10
2023-01-15T21:50:45.411Z,5.20
2023-01-15T21:53:12.007Z,5.50
2023-01-15T21:55:38.726Z,5.50
2023-01-15T21:58:05.277Z,5.10
2023-01-15T22:00:31.879Z,5.20
2023-01-15T22:02:58.612Z,5.40
2023-01-15T22:05:25.453Z,5.50
2023-01-15T22:07:52.094Z,5.50
2023-01-15T22:10:18.838Z,5.80
2023-01-15T22:12:45.414Z,5.50
2023-01-15T22:15:12.503Z,5.50
2023-01-15T22:17:39.121Z,5.50
2023-01-15T22:20:07.076Z,5.50
2023-01-15T22:22:36.277Z,5.40
2023-01-15T22:25:05.483Z,5.40
2023-01-15T22:27:34.447Z,5.40
2023-01-15T22:30:01.319Z,5.40
2023-01-15T22:32:27.898Z,5.50
2023-01-15T22:34:54.449Z,5.40
2023-01-15T22:37:21.063Z,5.40
2023-01-15T22:39:47.680Z,5.40
2023-01-15T22:42:27.528Z,5.30
2023-01-15T22:44:55.960Z,5.20
2023-01-15T22:47:23.207Z,5.20
2023-01-15T22:49:50.153Z,5.20
2023-01-15T22:52:16.952Z,5.30
2023-01-15T22:54:45.112Z,5.20
2023-01-15T22:57:13.133Z,5.30
2023-01-15T22:59:39.848Z,5.20
2023-01-15T23:02:06.685Z,5.20
2023-01-15T23:04:33.413Z,5.20
2023-01-15T23:07:00.081Z,5.20
2023-01-15T23:09:26.904Z,5.10
2023-01-15T23:11:53.519Z,5.20
2023-01-15T23:14:21.525Z,5.10
2023-01-15T23:16:48.456Z,5.00
2023-01-15T23:19:16.025Z,5.00
2023-01-15T23:21:43.213Z,5.00
2023-01-15T23:24:10.520Z,5.00
2023-01-15T23:26:37.457Z,4.80
2023-01-15T23:29:04.739Z,4.90
2023-01-15T23:31:31.512Z,4.90
2023-01-15T23:33:58.067Z,4.90
2023-01-15T23:36:24.678Z,4.90
2023-01-15T23:38:51.523Z,4.90
2023-01-15T23:41:40.726Z,4.90
2023-01-15T23:44:38.330Z,4.90
2023-01-15T23:47:05.699Z,4.90
2023-01-15T23:49:32.268Z,4.90
2023-01-15T23:51:59.195Z,4.90
2023-01-15T23:54:28.612Z,4.90
2023-01-15T23:56:55.695Z,5.00
2023-01-15T23:59:22.275Z,5.10
